sensor_id;sensor_type;location;lat;lon;timestamp;pressure;altitude;pressure_sealevel;temperature;humidity
62725;BME280;49026;52.600;4.694;2023-02-26T00:00:15;102072.31;;;1.20;80.27
62725;BME280;49026;52.600;4.694;2023-02-26T00:02:41;102076.91;;;1.35;81.21
62725;BME280;49026;52.600;4.694;2023-02-26T00:05:09;102088.41;;;1.51;81.73
62725;BME280;49026;52.600;4.694;2023-02-26T00:07:34;102097.28;;;1.65;81.48
62725;BME280;49026;52.600;4.694;2023-02-26T00:09:59;102095.78;;;1.78;80.73
62725;BME280;49026;52.600;4.694;2023-02-26T00:12:29;102099.41;;;1.88;79.92
62725;BME280;49026;52.600;4.694;2023-02-26T00:14:54;102100.38;;;1.94;79.98
62725;BME280;49026;52.600;4.694;2023-02-26T00:17:40;102104.75;;;2.00;79.28
62725;BME280;49026;52.600;4.694;2023-02-26T00:20:10;102099.63;;;2.03;78.99
62725;BME280;49026;52.600;4.694;2023-02-26T00:22:42;102097.91;;;2.05;78.86
62725;BME280;49026;52.600;4.694;2023-02-26T00:25:08;102112.66;;;2.08;79.36
62725;BME280;49026;52.600;4.694;2023-02-26T00:27:34;102111.00;;;2.13;78.36
62725;BME280;49026;52.600;4.694;2023-02-26T00:30:03;102110.22;;;2.18;77.50
62725;BME280;49026;52.600;4.694;2023-02-26T00:32:29;102115.41;;;2.18;77.64
62725;BME280;49026;52.600;4.694;2023-02-26T00:34:55;102122.31;;;2.16;78.16
62725;BME280;49026;52.600;4.694;2023-02-26T00:42:31;102131.78;;;2.14;75.47
62725;BME280;49026;52.600;4.694;2023-02-26T00:44:57;102136.09;;;2.12;76.70
62725;BME280;49026;52.600;4.694;2023-02-26T00:47:34;102145.44;;;2.02;76.81
62725;BME280;49026;52.600;4.694;2023-02-26T00:50:16;102138.41;;;1.97;76.44
62725;BME280;49026;52.600;4.694;2023-02-26T00:52:49;102141.81;;;1.93;77.16
62725;BME280;49026;52.600;4.694;2023-02-26T00:55:17;102150.38;;;1.89;75.95
62725;BME280;49026;52.600;4.694;2023-02-26T00:57:46;102143.38;;;1.83;73.93
62725;BME280;49026;52.600;4.694;2023-02-26T01:00:12;102153.72;;;1.81;73.05
62725;BME280;49026;52.600;4.694;2023-02-26T01:02:41;102151.06;;;1.78;72.71
62725;BME280;49026;52.600;4.694;2023-02-26T01:05:08;102147.59;;;1.78;72.93
62725;BME280;49026;52.600;4.694;2023-02-26T01:10:38;102155.19;;;1.65;69.82
62725;BME280;49026;52.600;4.694;2023-02-26T01:13:07;102162.88;;;1.61;72.32
62725;BME280;49026;52.600;4.694;2023-02-26T01:15:35;102168.72;;;1.51;72.79
62725;BME280;49026;52.600;4.694;2023-02-26T01:18:12;102167.66;;;1.39;73.85
62725;BME280;49026;52.600;4.694;2023-02-26T01:20:56;102158.03;;;1.34;71.47
62725;BME280;49026;52.600;4.694;2023-02-26T01:23:24;102159.78;;;1.35;70.90
62725;BME280;49026;52.600;4.694;2023-02-26T01:25:54;102168.34;;;1.31;69.16
62725;BME280;49026;52.600;4.694;2023-02-26T01:28:22;102165.78;;;1.32;68.17
62725;BME280;49026;52.600;4.694;2023-02-26T01:30:47;102158.91;;;1.34;69.72
62725;BME280;49026;52.600;4.694;2023-02-26T01:33:21;102177.81;;;1.30;71.63
62725;BME280;49026;52.600;4.694;2023-02-26T01:35:52;102177.72;;;1.24;71.19
62725;BME280;49026;52.600;4.694;2023-02-26T01:43:33;102185.16;;;1.08;72.51
62725;BME280;49026;52.600;4.694;2023-02-26T01:46:04;102174.72;;;1.04;72.63
62725;BME280;49026;52.600;4.694;2023-02-26T01:48:38;102184.94;;;0.98;71.52
62725;BME280;49026;52.600;4.694;2023-02-26T01:51:09;102183.09;;;0.92;70.88
62725;BME280;49026;52.600;4.694;2023-02-26T01:53:36;102188.28;;;0.92;71.77
62725;BME280;49026;52.600;4.694;2023-02-26T01:56:17;102187.34;;;0.90;70.92
62725;BME280;49026;52.600;4.694;2023-02-26T01:58:45;102189.03;;;0.88;71.65
62725;BME280;49026;52.600;4.694;2023-02-26T02:01:13;102199.28;;;0.83;70.93
62725;BME280;49026;52.600;4.694;2023-02-26T02:03:40;102194.06;;;0.82;71.94
62725;BME280;49026;52.600;4.694;2023-02-26T02:06:15;102193.97;;;0.76;73.01
62725;BME280;49026;52.600;4.694;2023-02-26T02:08:41;102210.25;;;0.71;73.64
62725;BME280;49026;52.600;4.694;2023-02-26T02:11:09;102205.88;;;0.69;73.64
62725;BME280;49026;52.600;4.694;2023-02-26T02:16:16;102205.81;;;0.66;73.86
62725;BME280;49026;52.600;4.694;2023-02-26T02:21:47;102221.63;;;0.80;73.83
62725;BME280;49026;52.600;4.694;2023-02-26T02:27:13;102219.31;;;0.90;74.33
62725;BME280;49026;52.600;4.694;2023-02-26T02:32:58;102228.56;;;0.81;73.99
62725;BME280;49026;52.600;4.694;2023-02-26T02:35:38;102237.00;;;0.73;74.58
62725;BME280;49026;52.600;4.694;2023-02-26T02:38:13;102237.66;;;0.63;74.88
62725;BME280;49026;52.600;4.694;2023-02-26T02:40:45;102238.34;;;0.56;74.53
62725;BME280;49026;52.600;4.694;2023-02-26T02:43:15;102231.41;;;0.55;74.79
62725;BME280;49026;52.600;4.694;2023-02-26T02:45:59;102226.13;;;0.49;74.38
62725;BME280;49026;52.600;4.694;2023-02-26T02:48:35;102235.53;;;0.45;73.85
62725;BME280;49026;52.600;4.694;2023-02-26T02:51:18;102238.00;;;0.41;74.08
62725;BME280;49026;52.600;4.694;2023-02-26T02:54:14;102240.47;;;0.36;74.69
62725;BME280;49026;52.600;4.694;2023-02-26T02:56:49;102242.06;;;0.31;74.30
62725;BME280;49026;52.600;4.694;2023-02-26T03:02:10;102257.31;;;0.22;75.45
62725;BME280;49026;52.600;4.694;2023-02-26T03:04:39;102261.63;;;0.21;75.86
62725;BME280;49026;52.600;4.694;2023-02-26T03:07:05;102263.22;;;0.16;75.36
62725;BME280;49026;52.600;4.694;2023-02-26T03:09:31;102260.53;;;0.11;75.62
62725;BME280;49026;52.600;4.694;2023-02-26T03:11:59;102262.16;;;0.08;76.18
62725;BME280;49026;52.600;4.694;2023-02-26T03:14:25;102258.66;;;0.06;76.38
62725;BME280;49026;52.600;4.694;2023-02-26T03:22:11;102265.84;;;-0.16;76.88
62725;BME280;49026;52.600;4.694;2023-02-26T03:24:47;102271.69;;;-0.23;77.02
62725;BME280;49026;52.600;4.694;2023-02-26T03:27:22;102268.94;;;-0.29;77.42
62725;BME280;49026;52.600;4.694;2023-02-26T03:35:08;102272.34;;;-0.30;77.68
62725;BME280;49026;52.600;4.694;2023-02-26T03:37:47;102268.97;;;-0.28;77.55
62725;BME280;49026;52.600;4.694;2023-02-26T03:40:37;102266.34;;;-0.29;77.64
62725;BME280;49026;52.600;4.694;2023-02-26T03:43:09;102280.84;;;-0.34;77.46
62725;BME280;49026;52.600;4.694;2023-02-26T03:45:38;102282.38;;;-0.41;77.63
62725;BME280;49026;52.600;4.694;2023-02-26T03:48:08;102288.16;;;-0.50;77.36
62725;BME280;49026;52.600;4.694;2023-02-26T03:50:47;102285.31;;;-0.59;77.48
62725;BME280;49026;52.600;4.694;2023-02-26T03:53:24;102286.81;;;-0.66;77.56
62725;BME280;49026;52.600;4.694;2023-02-26T03:56:09;102288.34;;;-0.72;77.27
62725;BME280;49026;52.600;4.694;2023-02-26T03:58:36;102302.97;;;-0.73;77.29
62725;BME280;49026;52.600;4.694;2023-02-26T04:01:12;102310.78;;;-0.71;77.97
62725;BME280;49026;52.600;4.694;2023-02-26T04:03:53;102316.94;;;-0.66;77.84
62725;BME280;49026;52.600;4.694;2023-02-26T04:06:22;102330.03;;;-0.60;77.83
62725;BME280;49026;52.600;4.694;2023-02-26T04:08:48;102333.63;;;-0.55;78.08
62725;BME280;49026;52.600;4.694;2023-02-26T04:11:19;102327.00;;;-0.47;78.04
62725;BME280;49026;52.600;4.694;2023-02-26T04:13:45;102328.91;;;-0.40;78.12
62725;BME280;49026;52.600;4.694;2023-02-26T04:16:11;102334.31;;;-0.30;78.16
62725;BME280;49026;52.600;4.694;2023-02-26T04:18:39;102335.47;;;-0.21;78.29
62725;BME280;49026;52.600;4.694;2023-02-26T04:21:12;102342.59;;;-0.12;78.65
62725;BME280;49026;52.600;4.694;2023-02-26T04:23:37;102338.47;;;-0.07;78.52
62725;BME280;49026;52.600;4.694;2023-02-26T04:26:02;102343.81;;;0.01;78.54
62725;BME280;49026;52.600;4.694;2023-02-26T04:28:28;102345.69;;;0.07;78.53
62725;BME280;49026;52.600;4.694;2023-02-26T04:30:54;102338.16;;;0.14;78.79
62725;BME280;49026;52.600;4.694;2023-02-26T04:33:19;102349.53;;;0.21;78.81
62725;BME280;49026;52.600;4.694;2023-02-26T04:35:49;102351.38;;;0.25;78.81
62725;BME280;49026;52.600;4.694;2023-02-26T04:38:15;102351.53;;;0.31;78.82
62725;BME280;49026;52.600;4.694;2023-02-26T04:40:40;102364.53;;;0.34;78.87
62725;BME280;49026;52.600;4.694;2023-02-26T04:43:07;102362.81;;;0.35;78.67
62725;BME280;49026;52.600;4.694;2023-02-26T04:45:33;102363.63;;;0.32;78.90
62725;BME280;49026;52.600;4.694;2023-02-26T04:48:00;102367.03;;;0.31;78.88
62725;BME280;49026;52.600;4.694;2023-02-26T04:50:25;102372.13;;;0.28;78.93
62725;BME280;49026;52.600;4.694;2023-02-26T04:52:51;102376.25;;;0.22;78.71
62725;BME280;49026;52.600;4.694;2023-02-26T04:55:16;102376.06;;;0.14;78.75
62725;BME280;49026;52.600;4.694;2023-02-26T04:57:41;102381.81;;;0.04;78.66
62725;BME280;49026;52.600;4.694;2023-02-26T05:00:10;102385.00;;;-0.05;78.70
62725;BME280;49026;52.600;4.694;2023-02-26T05:02:38;102396.00;;;-0.12;78.84
62725;BME280;49026;52.600;4.694;2023-02-26T05:05:06;102390.63;;;-0.19;78.79
62725;BME280;49026;52.600;4.694;2023-02-26T05:07:33;102393.03;;;-0.26;78.56
62725;BME280;49026;52.600;4.694;2023-02-26T05:09:58;102394.41;;;-0.38;78.60
62725;BME280;49026;52.600;4.694;2023-02-26T05:12:24;102395.81;;;-0.47;78.58
62725;BME280;49026;52.600;4.694;2023-02-26T05:14:49;102394.75;;;-0.54;78.75
62725;BME280;49026;52.600;4.694;2023-02-26T05:17:17;102393.75;;;-0.59;78.58
62725;BME280;49026;52.600;4.694;2023-02-26T05:19:45;102386.66;;;-0.66;78.16
62725;BME280;49026;52.600;4.694;2023-02-26T05:22:10;102394.25;;;-0.71;78.21
62725;BME280;49026;52.600;4.694;2023-02-26T05:24:36;102396.69;;;-0.76;78.47
62725;BME280;49026;52.600;4.694;2023-02-26T05:27:02;102398.28;;;-0.79;78.27
62725;BME280;49026;52.600;4.694;2023-02-26T05:29:27;102402.59;;;-0.80;78.31
62725;BME280;49026;52.600;4.694;2023-02-26T05:31:52;102401.72;;;-0.79;78.37
62725;BME280;49026;52.600;4.694;2023-02-26T05:34:20;102405.16;;;-0.80;78.49
62725;BME280;49026;52.600;4.694;2023-02-26T05:36:45;102416.41;;;-0.78;78.65
62725;BME280;49026;52.600;4.694;2023-02-26T05:39:10;102415.66;;;-0.75;78.73
62725;BME280;49026;52.600;4.694;2023-02-26T05:41:36;102414.03;;;-0.71;78.59
62725;BME280;49026;52.600;4.694;2023-02-26T05:44:04;102424.34;;;-0.71;78.28
62725;BME280;49026;52.600;4.694;2023-02-26T05:46:29;102431.19;;;-0.72;78.82
62725;BME280;49026;52.600;4.694;2023-02-26T05:48:54;102433.88;;;-0.69;78.46
62725;BME280;49026;52.600;4.694;2023-02-26T05:51:20;102432.91;;;-0.72;78.34
62725;BME280;49026;52.600;4.694;2023-02-26T05:53:45;102431.19;;;-0.73;78.52
62725;BME280;49026;52.600;4.694;2023-02-26T05:56:10;102436.25;;;-0.77;78.23
62725;BME280;49026;52.600;4.694;2023-02-26T05:58:36;102443.84;;;-0.81;78.24
62725;BME280;49026;52.600;4.694;2023-02-26T06:01:01;102451.47;;;-0.84;78.63
62725;BME280;49026;52.600;4.694;2023-02-26T06:03:27;102441.03;;;-0.87;78.28
62725;BME280;49026;52.600;4.694;2023-02-26T06:05:54;102450.34;;;-0.93;78.55
62725;BME280;49026;52.600;4.694;2023-02-26T06:08:20;102456.28;;;-0.95;78.39
62725;BME280;49026;52.600;4.694;2023-02-26T06:10:45;102447.69;;;-0.94;78.57
62725;BME280;49026;52.600;4.694;2023-02-26T06:13:10;102458.94;;;-0.94;78.23
62725;BME280;49026;52.600;4.694;2023-02-26T06:15:38;102449.47;;;-0.93;78.42
62725;BME280;49026;52.600;4.694;2023-02-26T06:18:03;102465.88;;;-0.91;78.59
62725;BME280;49026;52.600;4.694;2023-02-26T06:20:31;102460.03;;;-0.85;78.58
62725;BME280;49026;52.600;4.694;2023-02-26T06:22:58;102466.31;;;-0.77;78.82
62725;BME280;49026;52.600;4.694;2023-02-26T06:25:24;102470.94;;;-0.68;79.37
62725;BME280;49026;52.600;4.694;2023-02-26T06:27:49;102466.03;;;-0.59;79.14
62725;BME280;49026;52.600;4.694;2023-02-26T06:30:14;102473.34;;;-0.46;79.38
62725;BME280;49026;52.600;4.694;2023-02-26T06:32:42;102470.31;;;-0.32;79.14
62725;BME280;49026;52.600;4.694;2023-02-26T06:35:08;102479.38;;;-0.18;79.05
62725;BME280;49026;52.600;4.694;2023-02-26T06:37:34;102485.78;;;-0.05;78.89
62725;BME280;49026;52.600;4.694;2023-02-26T06:40:00;102495.69;;;0.10;78.97
62725;BME280;49026;52.600;4.694;2023-02-26T06:42:28;102502.25;;;0.27;78.40
62725;BME280;49026;52.600;4.694;2023-02-26T06:44:55;102503.50;;;0.42;77.86
62725;BME280;49026;52.600;4.694;2023-02-26T06:47:21;102506.47;;;0.54;77.08
62725;BME280;49026;52.600;4.694;2023-02-26T06:49:47;102509.28;;;0.63;76.26
62725;BME280;49026;52.600;4.694;2023-02-26T06:52:14;102512.09;;;0.71;76.08
62725;BME280;49026;52.600;4.694;2023-02-26T06:54:39;102521.72;;;0.77;76.85
62725;BME280;49026;52.600;4.694;2023-02-26T06:57:05;102521.81;;;0.80;77.53
62725;BME280;49026;52.600;4.694;2023-02-26T06:59:32;102522.69;;;0.79;77.54
62725;BME280;49026;52.600;4.694;2023-02-26T07:02:00;102531.31;;;0.79;78.09
62725;BME280;49026;52.600;4.694;2023-02-26T07:04:26;102536.47;;;0.79;77.59
62725;BME280;49026;52.600;4.694;2023-02-26T07:06:53;102536.53;;;0.81;77.88
62725;BME280;49026;52.600;4.694;2023-02-26T07:09:18;102540.03;;;0.83;77.78
62725;BME280;49026;52.600;4.694;2023-02-26T07:11:44;102544.44;;;0.87;78.88
62725;BME280;49026;52.600;4.694;2023-02-26T07:14:09;102542.84;;;0.90;79.15
62725;BME280;49026;52.600;4.694;2023-02-26T07:16:34;102552.56;;;0.99;78.88
62725;BME280;49026;52.600;4.694;2023-02-26T07:19:00;102553.69;;;1.09;78.51
62725;BME280;49026;52.600;4.694;2023-02-26T07:21:25;102553.00;;;1.16;79.17
62725;BME280;49026;52.600;4.694;2023-02-26T07:23:53;102555.03;;;1.28;78.93
62725;BME280;49026;52.600;4.694;2023-02-26T07:26:18;102562.22;;;1.40;78.47
62725;BME280;49026;52.600;4.694;2023-02-26T07:28:43;102568.59;;;1.53;78.06
62725;BME280;49026;52.600;4.694;2023-02-26T07:31:09;102558.47;;;1.62;77.38
62725;BME280;49026;52.600;4.694;2023-02-26T07:33:34;102567.41;;;1.75;76.76
62725;BME280;49026;52.600;4.694;2023-02-26T07:36:00;102570.28;;;1.85;77.46
62725;BME280;49026;52.600;4.694;2023-02-26T07:38:25;102578.34;;;1.98;76.82
62725;BME280;49026;52.600;4.694;2023-02-26T07:40:54;102582.09;;;2.11;77.11
62725;BME280;49026;52.600;4.694;2023-02-26T07:43:19;102585.81;;;2.23;73.91
62725;BME280;49026;52.600;4.694;2023-02-26T07:45:44;102587.84;;;2.37;74.07
62725;BME280;49026;52.600;4.694;2023-02-26T07:48:12;102595.06;;;2.50;74.07
62725;BME280;49026;52.600;4.694;2023-02-26T07:50:39;102594.47;;;2.64;75.29
62725;BME280;49026;52.600;4.694;2023-02-26T07:53:05;102596.53;;;2.80;74.04
62725;BME280;49026;52.600;4.694;2023-02-26T07:55:30;102601.19;;;2.96;76.32
62725;BME280;49026;52.600;4.694;2023-02-26T07:57:55;102589.41;;;3.14;73.50
62725;BME280;49026;52.600;4.694;2023-02-26T08:00:21;102599.25;;;3.32;74.99
62725;BME280;49026;52.600;4.694;2023-02-26T08:02:51;102599.59;;;3.50;74.73
62725;BME280;49026;52.600;4.694;2023-02-26T08:05:16;102596.44;;;3.68;73.62
62725;BME280;49026;52.600;4.694;2023-02-26T08:07:41;102591.44;;;3.82;74.54
62725;BME280;49026;52.600;4.694;2023-02-26T08:10:07;102597.78;;;3.98;70.60
62725;BME280;49026;52.600;4.694;2023-02-26T08:12:33;102600.66;;;4.17;72.52
62725;BME280;49026;52.600;4.694;2023-02-26T08:14:58;102607.72;;;4.27;72.06
62725;BME280;49026;52.600;4.694;2023-02-26T08:17:24;102607.84;;;4.35;70.96
62725;BME280;49026;52.600;4.694;2023-02-26T08:19:49;102610.69;;;4.52;73.57
62725;BME280;49026;52.600;4.694;2023-02-26T08:22:14;102620.44;;;4.68;67.70
62725;BME280;49026;52.600;4.694;2023-02-26T08:24:40;102614.47;;;4.77;68.62
62725;BME280;49026;52.600;4.694;2023-02-26T08:27:05;102627.59;;;4.83;67.94
62725;BME280;49026;52.600;4.694;2023-02-26T08:29:32;102633.75;;;4.90;69.76
62725;BME280;49026;52.600;4.694;2023-02-26T08:31:58;102631.38;;;5.10;69.78
62725;BME280;49026;52.600;4.694;2023-02-26T08:34:23;102639.25;;;5.17;68.94
62725;BME280;49026;52.600;4.694;2023-02-26T08:36:51;102641.09;;;5.25;72.07
62725;BME280;49026;52.600;4.694;2023-02-26T08:39:19;102637.75;;;5.39;69.62
62725;BME280;49026;52.600;4.694;2023-02-26T08:41:44;102650.00;;;5.45;63.63
62725;BME280;49026;52.600;4.694;2023-02-26T08:44:10;102648.22;;;5.44;63.09
62725;BME280;49026;52.600;4.694;2023-02-26T08:46:35;102653.53;;;5.50;65.96
62725;BME280;49026;52.600;4.694;2023-02-26T08:49:00;102664.09;;;5.66;64.39
62725;BME280;49026;52.600;4.694;2023-02-26T08:51:26;102657.28;;;5.82;64.12
62725;BME280;49026;52.600;4.694;2023-02-26T08:53:51;102666.25;;;6.13;65.67
62725;BME280;49026;52.600;4.694;2023-02-26T08:56:19;102663.91;;;6.48;66.01
62725;BME280;49026;52.600;4.694;2023-02-26T08:58:45;102670.09;;;6.64;62.38
62725;BME280;49026;52.600;4.694;2023-02-26T09:01:13;102666.63;;;6.68;61.03
62725;BME280;49026;52.600;4.694;2023-02-26T09:03:38;102667.41;;;6.52;57.11
62725;BME280;49026;52.600;4.694;2023-02-26T09:06:03;102680.44;;;6.49;57.21
62725;BME280;49026;52.600;4.694;2023-02-26T09:08:30;102681.31;;;6.51;62.50
62725;BME280;49026;52.600;4.694;2023-02-26T09:11:00;102671.75;;;6.53;56.05
62725;BME280;49026;52.600;4.694;2023-02-26T09:13:25;102677.88;;;6.60;57.16
62725;BME280;49026;52.600;4.694;2023-02-26T09:15:51;102683.19;;;6.69;55.93
62725;BME280;49026;52.600;4.694;2023-02-26T09:18:16;102688.34;;;6.61;56.58
62725;BME280;49026;52.600;4.694;2023-02-26T09:20:42;102690.91;;;6.52;57.10
62725;BME280;49026;52.600;4.694;2023-02-26T09:23:10;102695.34;;;6.64;60.92
62725;BME280;49026;52.600;4.694;2023-02-26T09:25:37;102702.41;;;6.80;62.29
62725;BME280;49026;52.600;4.694;2023-02-26T09:28:07;102698.19;;;7.15;63.70
62725;BME280;49026;52.600;4.694;2023-02-26T09:30:32;102691.28;;;7.40;53.01
62725;BME280;49026;52.600;4.694;2023-02-26T09:33:00;102698.28;;;7.42;47.05
62725;BME280;49026;52.600;4.694;2023-02-26T09:35:25;102707.03;;;7.51;54.26
62725;BME280;49026;52.600;4.694;2023-02-26T09:37:51;102706.22;;;7.67;59.51
62725;BME280;49026;52.600;4.694;2023-02-26T09:40:35;102717.59;;;7.95;44.80
62725;BME280;49026;52.600;4.694;2023-02-26T09:46:00;102714.97;;;7.94;59.49
62725;BME280;49026;52.600;4.694;2023-02-26T09:48:27;102721.97;;;8.10;57.77
62725;BME280;49026;52.600;4.694;2023-02-26T09:50:57;102725.44;;;8.26;52.83
62725;BME280;49026;52.600;4.694;2023-02-26T09:53:31;102723.69;;;8.41;56.88
62725;BME280;49026;52.600;4.694;2023-02-26T09:56:04;102728.94;;;8.41;54.53
62725;BME280;49026;52.600;4.694;2023-02-26T09:58:37;102725.47;;;8.49;57.58
62725;BME280;49026;52.600;4.694;2023-02-26T10:01:27;102739.41;;;8.73;60.39
62725;BME280;49026;52.600;4.694;2023-02-26T10:04:15;102738.53;;;8.74;55.90
62725;BME280;49026;52.600;4.694;2023-02-26T10:12:34;102750.78;;;8.32;57.93
62725;BME280;49026;52.600;4.694;2023-02-26T10:15:01;102750.75;;;8.26;43.66
62725;BME280;49026;52.600;4.694;2023-02-26T10:17:44;102761.19;;;7.93;56.91
62725;BME280;49026;52.600;4.694;2023-02-26T10:20:36;102756.72;;;7.46;59.48
62725;BME280;49026;52.600;4.694;2023-02-26T10:23:24;102764.44;;;7.20;59.66
62725;BME280;49026;52.600;4.694;2023-02-26T10:26:02;102769.72;;;7.26;55.82
62725;BME280;49026;52.600;4.694;2023-02-26T10:36:32;102776.97;;;8.57;56.71
62725;BME280;49026;52.600;4.694;2023-02-26T10:39:34;102777.81;;;8.82;44.67
62725;BME280;49026;52.600;4.694;2023-02-26T10:42:00;102783.00;;;7.85;53.78
62725;BME280;49026;52.600;4.694;2023-02-26T10:44:38;102778.59;;;7.73;57.27
62725;BME280;49026;52.600;4.694;2023-02-26T10:47:25;102783.91;;;7.96;50.59
62725;BME280;49026;52.600;4.694;2023-02-26T10:50:01;102789.19;;;8.21;53.76
62725;BME280;49026;52.600;4.694;2023-02-26T10:52:29;102785.72;;;8.46;55.93
62725;BME280;49026;52.600;4.694;2023-02-26T10:55:24;102796.16;;;8.26;53.74
62725;BME280;49026;52.600;4.694;2023-02-26T10:58:17;102787.38;;;7.86;53.46
62725;BME280;49026;52.600;4.694;2023-02-26T11:00:49;102789.97;;;7.70;58.23
62725;BME280;49026;52.600;4.694;2023-02-26T11:03:20;102785.69;;;8.31;59.14
62725;BME280;49026;52.600;4.694;2023-02-26T11:05:46;102790.03;;;8.33;56.63
62725;BME280;49026;52.600;4.694;2023-02-26T11:08:28;102786.56;;;8.67;59.93
62725;BME280;49026;52.600;4.694;2023-02-26T11:10:58;102790.06;;;8.58;53.90
62725;BME280;49026;52.600;4.694;2023-02-26T11:13:34;102792.69;;;8.78;56.99
62725;BME280;49026;52.600;4.694;2023-02-26T11:16:04;102792.69;;;8.63;54.78
62725;BME280;49026;52.600;4.694;2023-02-26T11:18:45;102795.31;;;8.78;58.20
62725;BME280;49026;52.600;4.694;2023-02-26T11:21:25;102803.16;;;8.75;57.35
62725;BME280;49026;52.600;4.694;2023-02-26T11:24:06;102797.03;;;9.05;51.40
62725;BME280;49026;52.600;4.694;2023-02-26T11:26:37;102798.69;;;9.33;56.18
62725;BME280;49026;52.600;4.694;2023-02-26T11:29:05;102781.94;;;9.58;53.24
62725;BME280;49026;52.600;4.694;2023-02-26T11:31:31;102798.59;;;9.51;54.42
62725;BME280;49026;52.600;4.694;2023-02-26T11:34:08;102783.72;;;9.52;53.58
62725;BME280;49026;52.600;4.694;2023-02-26T11:36:40;102788.00;;;9.71;54.51
62725;BME280;49026;52.600;4.694;2023-02-26T11:39:23;102787.19;;;9.61;55.44
62725;BME280;49026;52.600;4.694;2023-02-26T11:41:52;102782.16;;;9.09;56.59
62725;BME280;49026;52.600;4.694;2023-02-26T11:44:34;102790.06;;;8.40;57.29
62725;BME280;49026;52.600;4.694;2023-02-26T11:47:08;102796.13;;;9.00;58.25
62725;BME280;49026;52.600;4.694;2023-02-26T11:49:41;102783.91;;;8.95;49.59
62725;BME280;49026;52.600;4.694;2023-02-26T11:53:15;102782.94;;;9.23;56.13
62725;BME280;49026;52.600;4.694;2023-02-26T11:55:16;102784.53;;;9.69;50.01
62725;BME280;49026;52.600;4.694;2023-02-26T11:57:42;102778.38;;;9.69;52.56
62725;BME280;49026;52.600;4.694;2023-02-26T12:02:59;102786.22;;;9.81;53.35
62725;BME280;49026;52.600;4.694;2023-02-26T12:05:28;102766.94;;;9.82;54.63
62725;BME280;49026;52.600;4.694;2023-02-26T12:07:53;102788.59;;;10.18;53.62
62725;BME280;49026;52.600;4.694;2023-02-26T12:10:26;102787.72;;;10.19;54.86
62725;BME280;49026;52.600;4.694;2023-02-26T12:13:46;102780.13;;;9.70;57.14
62725;BME280;49026;52.600;4.694;2023-02-26T12:16:02;102779.41;;;9.41;58.43
62725;BME280;49026;52.600;4.694;2023-02-26T12:18:38;102774.84;;;9.79;42.21
62725;BME280;49026;52.600;4.694;2023-02-26T12:21:58;102766.25;;;9.46;53.95
62725;BME280;49026;52.600;4.694;2023-02-26T12:24:32;102785.72;;;8.77;57.04
62725;BME280;49026;52.600;4.694;2023-02-26T12:27:21;102772.56;;;8.96;57.00
62725;BME280;49026;52.600;4.694;2023-02-26T12:35:21;102778.75;;;8.45;45.62
62725;BME280;49026;52.600;4.694;2023-02-26T12:46:02;102790.53;;;7.08;52.00
62725;BME280;49026;52.600;4.694;2023-02-26T12:48:41;102792.97;;;6.77;56.26
62725;BME280;49026;52.600;4.694;2023-02-26T12:54:21;102793.13;;;7.04;57.36
62725;BME280;49026;52.600;4.694;2023-02-26T13:00:09;102792.41;;;7.27;61.28
62725;BME280;49026;52.600;4.694;2023-02-26T13:16:19;102789.91;;;6.24;56.50
62725;BME280;49026;52.600;4.694;2023-02-26T13:21:33;102792.66;;;8.10;54.68
62725;BME280;49026;52.600;4.694;2023-02-26T13:24:04;102790.06;;;8.83;54.68
62725;BME280;49026;52.600;4.694;2023-02-26T13:26:32;102786.28;;;9.66;50.46
62725;BME280;49026;52.600;4.694;2023-02-26T13:31:42;102783.72;;;9.53;51.67
62725;BME280;49026;52.600;4.694;2023-02-26T13:34:18;102786.22;;;9.75;53.19
62725;BME280;49026;52.600;4.694;2023-02-26T13:36:45;102788.44;;;10.43;52.77
62725;BME280;49026;52.600;4.694;2023-02-26T13:52:34;102789.94;;;10.68;51.66
62725;BME280;49026;52.600;4.694;2023-02-26T13:55:03;102780.84;;;9.96;53.88
62725;BME280;49026;52.600;4.694;2023-02-26T13:57:46;102785.63;;;9.00;55.53
62725;BME280;49026;52.600;4.694;2023-02-26T14:00:34;102784.81;;;8.78;55.70
62725;BME280;49026;52.600;4.694;2023-02-26T14:03:12;102790.94;;;8.19;52.21
62725;BME280;49026;52.600;4.694;2023-02-26T14:12:03;102782.22;;;8.60;52.77
62725;BME280;49026;52.600;4.694;2023-02-26T14:14:22;102781.94;;;9.54;51.84
62725;BME280;49026;52.600;4.694;2023-02-26T14:19:31;102792.81;;;10.41;52.90
62725;BME280;49026;52.600;4.694;2023-02-26T14:22:16;102793.34;;;9.56;54.08
62725;BME280;49026;52.600;4.694;2023-02-26T14:27:48;102791.72;;;7.87;54.69
62725;BME280;49026;52.600;4.694;2023-02-26T14:30:18;102785.56;;;7.63;58.83
62725;BME280;49026;52.600;4.694;2023-02-26T14:33:06;102808.28;;;7.78;56.71
62725;BME280;49026;52.600;4.694;2023-02-26T14:35:35;102797.06;;;8.48;54.95
62725;BME280;49026;52.600;4.694;2023-02-26T14:40:54;102794.44;;;8.39;53.54
62725;BME280;49026;52.600;4.694;2023-02-26T14:43:33;102790.75;;;7.54;57.05
62725;BME280;49026;52.600;4.694;2023-02-26T14:46:01;102805.31;;;7.01;59.10
62725;BME280;49026;52.600;4.694;2023-02-26T14:48:28;102802.03;;;7.39;60.30
62725;BME280;49026;52.600;4.694;2023-02-26T14:51:04;102797.91;;;8.38;56.51
62725;BME280;49026;52.600;4.694;2023-02-26T14:54:02;102792.59;;;9.15;48.83
62725;BME280;49026;52.600;4.694;2023-02-26T14:59:47;102802.84;;;7.24;55.44
62725;BME280;49026;52.600;4.694;2023-02-26T15:05:53;102807.53;;;8.81;54.56
62725;BME280;49026;52.600;4.694;2023-02-26T15:10:32;102808.41;;;8.29;54.49
62725;BME280;49026;52.600;4.694;2023-02-26T15:13:28;102811.63;;;7.35;56.66
62725;BME280;49026;52.600;4.694;2023-02-26T15:16:06;102803.00;;;7.61;56.63
62725;BME280;49026;52.600;4.694;2023-02-26T15:21:19;102811.75;;;9.42;50.35
62725;BME280;49026;52.600;4.694;2023-02-26T15:23:54;102811.56;;;9.82;52.31
62725;BME280;49026;52.600;4.694;2023-02-26T15:26:28;102815.69;;;10.22;49.24
62725;BME280;49026;52.600;4.694;2023-02-26T15:28:58;102806.97;;;10.19;46.15
62725;BME280;49026;52.600;4.694;2023-02-26T15:31:35;102816.66;;;10.08;48.32